Time;durP1;ratioP1;P1;durP2;ratioP2;P2;SDS_P1;SDS_P2;PMS_P1;PMS_P2;Temp;Humidity;BMP_temperature;BMP_pressure;BME280_temperature;BME280_humidity;BME280_pressure;Samples;Min_cycle;Max_cycle;Signal;HPM_P1;HPM_P2
2021/04/03 00:00:11;;;;;;;25.75;3.95;;;6.60;92.70;;;;;;5064114;28;20036;-73
2021/04/03 00:02:37;;;;;;;22.80;4.90;;;6.60;92.90;;;;;;5065411;28;20068;-72
2021/04/03 00:05:05;;;;;;;16.10;4.03;;;6.60;93.10;;;;;;5064979;28;20045;-72
2021/04/03 00:07:31;;;;;;;26.65;4.75;;;6.50;93.50;;;;;;5066011;28;20041;-72
2021/04/03 00:09:57;;;;;;;17.15;4.10;;;6.50;93.40;;;;;;5051513;28;20484;-73
2021/04/03 00:12:23;;;;;;;25.60;3.92;;;6.40;93.60;;;;;;5065092;28;20056;-72
2021/04/03 00:14:49;;;;;;;22.38;3.90;;;6.40;93.90;;;;;;5064829;28;20041;-72
2021/04/03 00:17:15;;;;;;;34.58;4.70;;;6.30;94.00;;;;;;5065037;28;20045;-72
2021/04/03 00:19:41;;;;;;;27.45;4.20;;;6.20;94.50;;;;;;5064720;28;20037;-72
2021/04/03 00:22:06;;;;;;;27.55;3.95;;;6.20;94.40;;;;;;5065172;28;20041;-72
2021/04/03 00:24:32;;;;;;;35.83;5.20;;;6.20;94.50;;;;;;5065865;28;20041;-72
2021/04/03 00:26:58;;;;;;;22.40;3.40;;;6.20;94.50;;;;;;5065966;28;20053;-72
2021/04/03 00:29:24;;;;;;;20.38;3.67;;;6.10;94.80;;;;;;5065077;28;20132;-73
2021/04/03 00:31:49;;;;;;;25.23;4.22;;;6.10;95.00;;;;;;5065007;28;20041;-72
2021/04/03 00:34:15;;;;;;;34.22;4.55;;;6.10;95.00;;;;;;5064380;28;20096;-73
2021/04/03 00:36:41;;;;;;;25.10;5.35;;;5.90;95.40;;;;;;5064846;28;20052;-72
2021/04/03 00:39:07;;;;;;;24.90;4.30;;;6.00;95.40;;;;;;5064949;28;20045;-72
2021/04/03 00:41:33;;;;;;;29.52;4.95;;;5.90;95.50;;;;;;5065033;28;20072;-72
2021/04/03 00:43:59;;;;;;;24.70;5.00;;;5.80;95.60;;;;;;5064526;28;20065;-72
2021/04/03 00:46:25;;;;;;;20.67;4.65;;;5.80;96.00;;;;;;5064677;28;20068;-72
2021/04/03 00:48:51;;;;;;;27.95;4.78;;;5.90;95.90;;;;;;5064449;28;20048;-72
2021/04/03 00:51:17;;;;;;;29.90;6.28;;;5.80;96.00;;;;;;5064760;28;20068;-72
2021/04/03 00:53:43;;;;;;;31.50;5.07;;;5.80;96.10;;;;;;5064257;28;20048;-72
2021/04/03 00:56:09;;;;;;;38.65;6.60;;;5.70;96.20;;;;;;5064984;28;20045;-72
2021/04/03 00:58:35;;;;;;;27.20;4.55;;;5.70;96.50;;;;;;5064368;28;20057;-72
2021/04/03 01:01:03;;;;;;;25.63;4.15;;;5.60;96.40;;;;;;5064429;28;20207;-72
2021/04/03 01:03:29;;;;;;;24.30;3.95;;;5.50;96.60;;;;;;5063983;28;20041;-72
2021/04/03 01:05:55;;;;;;;24.27;5.22;;;5.50;96.70;;;;;;5046789;28;20079;-72
2021/04/03 01:08:21;;;;;;;28.10;4.55;;;5.40;96.80;;;;;;5063996;28;20060;-72
2021/04/03 01:10:53;;;;;;;30.83;5.07;;;5.40;97.00;;;;;;5063661;28;20425;-72
2021/04/03 01:13:40;;;;;;;24.13;5.15;;;5.30;97.00;;;;;;5064210;28;20136;-72
2021/04/03 01:16:22;;;;;;;28.73;5.55;;;5.30;97.10;;;;;;5064375;28;20066;-72
2021/04/03 01:19:25;;;;;;;23.42;4.70;;;5.30;97.10;;;;;;5065372;28;20507;-73
2021/04/03 01:22:17;;;;;;;25.25;5.50;;;5.20;97.40;;;;;;5055306;28;20041;-72
2021/04/03 01:25:03;;;;;;;32.00;4.53;;;5.20;97.70;;;;;;5051068;28;20075;-72
2021/04/03 01:27:30;;;;;;;26.80;4.35;;;5.20;97.70;;;;;;5063994;28;20059;-73
2021/04/03 01:30:05;;;;;;;22.25;4.53;;;5.30;97.80;;;;;;5064830;28;20049;-73
2021/04/03 01:32:55;;;;;;;28.60;5.50;;;5.40;97.60;;;;;;5046800;28;20566;-73
2021/04/03 01:35:38;;;;;;;30.48;4.50;;;5.50;97.80;;;;;;5065215;28;20076;-72
2021/04/03 01:38:25;;;;;;;30.25;5.25;;;5.50;97.80;;;;;;5064588;28;20049;-72
2021/04/03 01:40:54;;;;;;;38.15;5.95;;;5.60;97.80;;;;;;5063870;28;20196;-72
2021/04/03 01:43:23;;;;;;;31.30;5.20;;;5.60;97.80;;;;;;5064872;28;20079;-72
2021/04/03 01:45:54;;;;;;;32.40;5.07;;;5.70;97.90;;;;;;5063902;28;20063;-72
2021/04/03 01:48:21;;;;;;;23.10;5.15;;;5.70;98.20;;;;;;5063949;28;20398;-72
2021/04/03 01:50:48;;;;;;;26.98;4.72;;;5.80;97.80;;;;;;5063758;28;20079;-72
2021/04/03 01:53:14;;;;;;;33.45;6.22;;;5.80;97.80;;;;;;5064338;28;20052;-72
2021/04/03 01:55:40;;;;;;;30.70;6.20;;;5.70;97.90;;;;;;5063872;28;20052;-72
2021/04/03 01:58:07;;;;;;;39.15;5.35;;;5.80;98.00;;;;;;5063672;28;20061;-72
2021/04/03 02:00:33;;;;;;;36.85;5.45;;;5.80;98.10;;;;;;5063308;28;20083;-72
2021/04/03 02:03:00;;;;;;;33.65;6.00;;;5.80;98.10;;;;;;5063939;28;20068;-72
2021/04/03 02:05:26;;;;;;;33.63;6.63;;;5.80;98.10;;;;;;5067195;28;20045;-72
2021/04/03 02:07:55;;;;;;;31.38;5.78;;;5.90;98.10;;;;;;5067853;28;20048;-72
2021/04/03 02:10:24;;;;;;;30.08;5.55;;;5.90;98.20;;;;;;5067501;28;20041;-72
2021/04/03 02:12:50;;;;;;;37.70;6.07;;;5.90;98.20;;;;;;5067619;28;20083;-72
2021/04/03 02:15:19;;;;;;;26.35;5.28;;;5.90;98.30;;;;;;5037246;28;20106;-72
2021/04/03 02:17:48;;;;;;;36.22;5.75;;;5.90;98.60;;;;;;5067109;28;20052;-72
2021/04/03 02:20:14;;;;;;;35.75;5.65;;;6.00;98.40;;;;;;5067330;28;20056;-72
2021/04/03 02:22:42;;;;;;;35.97;6.88;;;5.90;98.50;;;;;;5067199;28;20121;-73
2021/04/03 02:25:10;;;;;;;34.45;6.15;;;5.90;98.60;;;;;;5067253;28;20127;-72
2021/04/03 02:27:37;;;;;;;38.53;5.35;;;5.90;99.10;;;;;;5067567;28;20131;-72
2021/04/03 02:30:12;;;;;;;30.00;5.70;;;6.00;98.80;;;;;;5067094;28;20069;-73
2021/04/03 02:32:55;;;;;;;33.92;5.93;;;6.10;98.60;;;;;;5066905;28;20051;-73
2021/04/03 02:35:23;;;;;;;37.40;6.97;;;6.10;98.90;;;;;;5055204;28;20057;-73
2021/04/03 02:37:57;;;;;;;33.88;6.10;;;6.20;98.50;;;;;;5067959;28;20049;-72
2021/04/03 02:40:28;;;;;;;38.45;6.63;;;6.20;98.50;;;;;;5067463;28;20045;-72
2021/04/03 02:43:16;;;;;;;;;;;6.20;98.60;;;;;;5067325;28;20116;-72
2021/04/03 02:45:50;;;;;;;32.60;5.68;;;6.20;98.60;;;;;;5066438;28;19932;-72
2021/04/03 02:48:21;;;;;;;33.17;6.32;;;6.30;98.60;;;;;;5066247;28;20481;-73
2021/04/03 02:50:51;;;;;;;;;;;6.20;98.60;;;;;;5067595;28;20068;-72
2021/04/03 02:53:21;;;;;;;33.53;6.10;;;6.30;98.60;;;;;;5054788;28;19925;-73
2021/04/03 02:55:48;;;;;;;35.05;6.68;;;6.20;98.60;;;;;;5067337;28;20049;-72
2021/04/03 02:58:18;;;;;;;25.25;5.68;;;6.30;98.80;;;;;;5067070;28;20083;-71
2021/04/03 03:00:46;;;;;;;42.78;7.82;;;6.20;99.20;;;;;;5067166;28;20049;-72
2021/04/03 03:03:13;;;;;;;32.25;6.05;;;6.20;99.30;;;;;;5067095;28;20102;-72
2021/04/03 03:05:43;;;;;;;32.22;7.72;;;6.30;98.80;;;;;;5066960;28;20068;-72
2021/04/03 03:08:12;;;;;;;37.40;6.82;;;6.30;98.80;;;;;;5065672;28;20045;-72
2021/04/03 03:10:39;;;;;;;31.55;5.82;;;6.30;98.90;;;;;;5066531;28;20049;-72
2021/04/03 03:13:08;;;;;;;37.20;6.43;;;6.20;98.90;;;;;;5066072;28;20118;-72
2021/04/03 03:15:34;;;;;;;43.13;6.07;;;6.30;98.90;;;;;;5067319;28;20113;-72
2021/04/03 03:18:01;;;;;;;42.65;7.00;;;6.20;99.10;;;;;;5066987;28;20076;-73
2021/04/03 03:20:28;;;;;;;46.67;7.13;;;6.10;99.20;;;;;;5065935;28;20045;-72
2021/04/03 03:22:56;;;;;;;37.45;6.60;;;6.20;99.30;;;;;;5066439;28;20041;-72
2021/04/03 03:25:23;;;;;;;43.55;7.82;;;6.10;99.30;;;;;;5066083;28;20052;-72
2021/04/03 03:27:50;;;;;;;37.08;6.85;;;6.10;99.40;;;;;;5065807;28;20045;-72
2021/04/03 03:30:19;;;;;;;47.47;7.20;;;6.10;99.50;;;;;;5065907;28;20512;-72
2021/04/03 03:32:45;;;;;;;37.78;6.32;;;6.00;99.50;;;;;;5065653;28;20048;-72
2021/04/03 03:35:12;;;;;;;39.67;6.57;;;6.10;99.10;;;;;;5066086;28;20063;-72
2021/04/03 03:37:38;;;;;;;37.92;6.75;;;6.00;99.30;;;;;;5066099;28;20072;-72
2021/04/03 03:40:05;;;;;;;33.08;5.97;;;6.00;99.40;;;;;;5065771;28;20045;-72
2021/04/03 03:42:31;;;;;;;38.45;6.20;;;6.00;99.40;;;;;;5066569;28;20053;-72
2021/04/03 03:44:57;;;;;;;39.17;6.03;;;6.00;99.50;;;;;;5066405;28;20110;-72
2021/04/03 03:47:24;;;;;;;31.42;5.55;;;6.00;99.50;;;;;;5065618;28;20497;-73
2021/04/03 03:49:49;;;;;;;36.17;6.85;;;6.00;99.50;;;;;;5065987;28;20074;-72
2021/04/03 03:52:15;;;;;;;30.75;7.28;;;6.00;99.20;;;;;;5066476;28;20045;-72
2021/04/03 03:54:41;;;;;;;39.33;7.82;;;6.00;99.30;;;;;;5065791;28;20045;-72
2021/04/03 03:57:07;;;;;;;35.83;6.70;;;5.90;99.30;;;;;;5065196;28;20049;-72
2021/04/03 03:59:33;;;;;;;37.65;5.60;;;5.80;99.60;;;;;;5065247;28;20053;-73
2021/04/03 04:01:58;;;;;;;45.42;6.85;;;5.80;99.60;;;;;;5065189;28;20053;-73
2021/04/03 04:04:24;;;;;;;40.40;9.75;;;5.70;99.70;;;;;;5065548;28;20057;-72
2021/04/03 04:06:50;;;;;;;40.20;6.00;;;5.70;99.90;;;;;;5065191;28;20045;-72
2021/04/03 04:09:16;;;;;;;30.13;6.35;;;5.70;99.90;;;;;;5065085;28;20068;-72
2021/04/03 04:11:42;;;;;;;38.33;7.07;;;5.70;99.90;;;;;;5065003;28;20053;-72
2021/04/03 04:14:07;;;;;;;42.05;7.70;;;5.70;99.80;;;;;;5064722;28;20045;-72
2021/04/03 04:16:34;;;;;;;34.20;6.65;;;5.60;99.90;;;;;;5065352;28;20108;-72
2021/04/03 04:19:00;;;;;;;36.15;7.78;;;5.60;99.90;;;;;;5052674;28;20067;-72
2021/04/03 04:21:26;;;;;;;36.03;5.82;;;5.50;99.90;;;;;;5065463;28;20059;-72
2021/04/03 04:23:52;;;;;;;39.85;7.40;;;5.50;99.90;;;;;;5064526;28;20493;-72
2021/04/03 04:26:18;;;;;;;40.67;6.60;;;5.50;99.90;;;;;;5064868;28;20056;-72
2021/04/03 04:28:43;;;;;;;47.20;6.68;;;5.50;99.90;;;;;;5064930;28;20048;-72
2021/04/03 04:31:10;;;;;;;41.65;6.78;;;5.40;99.90;;;;;;5065054;28;20467;-72
2021/04/03 04:33:36;;;;;;;30.38;6.32;;;5.40;99.90;;;;;;5065135;28;20044;-72
2021/04/03 04:36:02;;;;;;;36.88;6.57;;;5.50;99.90;;;;;;5065164;28;20057;-72
2021/04/03 04:38:28;;;;;;;37.30;6.07;;;5.50;99.90;;;;;;5064690;28;20041;-72
2021/04/03 04:40:53;;;;;;;30.60;5.35;;;5.50;99.90;;;;;;5065218;28;20051;-72
2021/04/03 04:43:21;;;;;;;36.65;6.63;;;5.60;99.90;;;;;;5064620;28;20064;-72
2021/04/03 04:45:46;;;;;;;34.83;7.13;;;5.60;99.90;;;;;;5064725;28;20108;-72
2021/04/03 04:48:12;;;;;;;42.20;7.28;;;5.70;99.90;;;;;;5064646;28;20049;-72
2021/04/03 04:50:38;;;;;;;35.33;6.38;;;5.70;99.90;;;;;;5064727;28;20072;-72
2021/04/03 04:53:06;;;;;;;35.60;5.45;;;5.80;99.90;;;;;;5064398;28;20091;-72
2021/04/03 04:55:33;;;;;;;34.20;5.47;;;5.80;99.90;;;;;;5064736;28;20474;-72
2021/04/03 04:57:59;;;;;;;38.10;6.60;;;5.80;99.90;;;;;;5065071;28;20044;-72
2021/04/03 05:00:45;;;;;;;37.38;6.35;;;5.80;99.90;;;;;;5043672;28;20485;-72
2021/04/03 05:03:10;;;;;;;41.63;6.50;;;5.80;99.90;;;;;;5043999;28;20064;-72
2021/04/03 05:05:36;;;;;;;35.20;6.65;;;5.80;99.90;;;;;;5044789;28;20050;-72
2021/04/03 05:08:02;;;;;;;35.65;6.93;;;5.90;99.90;;;;;;5044174;28;20053;-72
2021/04/03 05:10:28;;;;;;;37.53;6.32;;;6.00;99.70;;;;;;5044842;28;20462;-72
2021/04/03 05:12:54;;;;;;;36.05;6.53;;;6.00;99.90;;;;;;5044149;28;20049;-71
2021/04/03 05:15:19;;;;;;;31.23;5.80;;;6.10;99.40;;;;;;5038205;28;20072;-72
2021/04/03 05:17:46;;;;;;;37.05;7.68;;;6.10;99.40;;;;;;5044209;28;20584;-72
2021/04/03 05:20:12;;;;;;;32.50;6.25;;;6.10;99.40;;;;;;5045224;28;20045;-72
2021/04/03 05:22:38;;;;;;;31.15;5.55;;;6.10;99.50;;;;;;5044718;28;20541;-72
2021/04/03 05:25:04;;;;;;;35.55;6.40;;;6.10;99.50;;;;;;5044945;28;20042;-72
2021/04/03 05:27:30;;;;;;;42.22;7.22;;;6.10;99.60;;;;;;5044496;28;20044;-72
2021/04/03 05:29:56;;;;;;;33.97;6.78;;;6.20;99.40;;;;;;5044115;28;20053;-72
2021/04/03 05:32:21;;;;;;;38.42;7.07;;;6.20;99.30;;;;;;5044115;28;20060;-72
2021/04/03 05:34:48;;;;;;;36.60;6.85;;;6.30;99.20;;;;;;5043754;28;20107;-72
2021/04/03 05:37:13;;;;;;;38.85;7.03;;;6.30;99.10;;;;;;5044212;28;20056;-72
2021/04/03 05:39:39;;;;;;;28.42;7.43;;;6.40;99.10;;;;;;5047036;28;20046;-72
2021/04/03 05:42:06;;;;;;;38.28;7.07;;;6.40;99.10;;;;;;5049121;28;20045;-72
2021/04/03 05:44:32;;;;;;;30.27;5.60;;;6.30;99.30;;;;;;5048040;28;20072;-72
2021/04/03 05:46:59;;;;;;;32.15;6.50;;;6.30;99.30;;;;;;5048237;28;20077;-72
2021/04/03 05:49:25;;;;;;;28.50;7.28;;;6.30;99.40;;;;;;5048146;28;20045;-72
2021/04/03 05:51:51;;;;;;;34.22;6.45;;;6.40;99.30;;;;;;5048769;28;20045;-72
2021/04/03 05:54:17;;;;;;;38.88;7.30;;;6.40;99.30;;;;;;5048757;28;20392;-73
2021/04/03 05:56:43;;;;;;;36.00;7.45;;;6.50;99.30;;;;;;5048301;28;20056;-73
2021/04/03 05:59:09;;;;;;;33.10;6.15;;;6.40;99.30;;;;;;5053393;28;20088;-72
2021/04/03 06:01:37;;;;;;;31.98;6.50;;;6.50;99.40;;;;;;5067723;28;20037;-72
2021/04/03 06:04:03;;;;;;;39.05;6.88;;;6.50;99.40;;;;;;5068407;28;20076;-71
2021/04/03 06:06:29;;;;;;;39.65;7.68;;;6.60;99.40;;;;;;5067995;28;20040;-72
2021/04/03 06:08:55;;;;;;;41.28;7.28;;;6.60;99.10;;;;;;5068292;28;20049;-72
2021/04/03 06:11:23;;;;;;;30.90;5.60;;;6.70;99.40;;;;;;5068249;28;20381;-72
2021/04/03 06:14:01;;;;;;;35.00;6.28;;;6.70;98.80;;;;;;5067342;28;20052;-72
2021/04/03 06:16:35;;;;;;;37.35;6.53;;;6.70;98.80;;;;;;5067242;28;20051;-72
2021/04/03 06:19:05;;;;;;;37.40;5.75;;;6.80;98.90;;;;;;5067596;28;20049;-72
2021/04/03 06:21:31;;;;;;;36.33;7.70;;;6.80;99.00;;;;;;5067665;28;20047;-72
2021/04/03 06:23:57;;;;;;;36.13;7.50;;;6.90;98.70;;;;;;5067111;28;20053;-72
2021/04/03 06:26:23;;;;;;;40.22;7.10;;;6.90;98.60;;;;;;5067398;28;20047;-72
2021/04/03 06:28:49;;;;;;;32.80;6.88;;;7.00;98.50;;;;;;5067112;28;20632;-72
2021/04/03 06:31:16;;;;;;;34.97;6.38;;;7.00;98.40;;;;;;5054233;28;20118;-71
2021/04/03 06:33:43;;;;;;;39.15;7.40;;;7.00;98.20;;;;;;5067981;28;20049;-72
2021/04/03 06:36:10;;;;;;;36.00;7.00;;;7.00;98.20;;;;;;5065721;28;20074;-72
2021/04/03 06:38:37;;;;;;;40.67;6.50;;;7.00;98.30;;;;;;5066508;28;20037;-72
2021/04/03 06:41:15;;;;;;;30.08;6.65;;;7.00;98.20;;;;;;5066826;28;20068;-72
2021/04/03 06:43:40;;;;;;;29.55;6.65;;;7.00;98.50;;;;;;5062107;28;20056;-80
2021/04/03 06:46:25;;;;;;;31.73;6.07;;;7.00;98.30;;;;;;5067319;28;20071;-72
2021/04/03 06:48:55;;;;;;;40.53;7.03;;;7.20;98.10;;;;;;5066329;28;20096;-73
2021/04/03 06:51:22;;;;;;;;;;;7.10;98.00;;;;;;5066753;28;20051;-73
2021/04/03 06:53:49;;;;;;;35.95;6.40;;;7.20;98.00;;;;;;5067096;28;20012;-74
2021/04/03 06:56:20;;;;;;;38.28;7.50;;;7.20;97.80;;;;;;5066479;28;20037;-72
2021/04/03 06:58:48;;;;;;;38.08;6.30;;;7.20;97.90;;;;;;5064020;28;20040;-70
2021/04/03 07:01:19;;;;;;;33.25;6.40;;;7.20;97.80;;;;;;5066123;28;20110;-73
2021/04/03 07:03:52;;;;;;;32.00;6.55;;;7.30;97.80;;;;;;5066910;28;20119;-74
2021/04/03 07:06:24;;;;;;;34.28;6.43;;;7.40;97.80;;;;;;5065901;28;20492;-73
2021/04/03 07:08:51;;;;;;;42.25;7.47;;;7.50;97.40;;;;;;5066079;28;20416;-74
2021/04/03 07:11:17;;;;;;;35.83;7.50;;;7.40;97.60;;;;;;5065791;28;20048;-73
2021/04/03 07:13:44;;;;;;;37.67;7.68;;;7.40;97.50;;;;;;5065079;28;20040;-71
2021/04/03 07:16:11;;;;;;;38.10;7.25;;;7.40;97.20;;;;;;5065893;28;20100;-72
2021/04/03 07:18:38;;;;;;;32.45;6.75;;;7.50;97.00;;;;;;5065689;28;20102;-74
2021/04/03 07:21:08;;;;;;;30.63;7.03;;;7.50;97.20;;;;;;5065708;28;20045;-73
2021/04/03 07:23:38;;;;;;;32.47;6.40;;;7.40;97.30;;;;;;5066485;28;20104;-72
2021/04/03 07:26:04;;;;;;;;;;;7.50;97.60;;;;;;5065717;28;20053;-72
2021/04/03 07:28:41;;;;;;;34.53;9.05;;;7.60;97.70;;;;;;5066875;28;19980;-72
2021/04/03 07:31:08;;;;;;;30.70;6.18;;;7.70;97.40;;;;;;5066373;28;20045;-70
2021/04/03 07:33:46;;;;;;;31.23;6.00;;;7.70;96.80;;;;;;5065479;28;20049;-74
2021/04/03 07:36:12;;;;;;;35.75;7.47;;;7.70;96.60;;;;;;5066482;28;20420;-74
2021/04/03 07:38:38;;;;;;;32.65;6.80;;;7.70;96.60;;;;;;5065722;28;20052;-74
2021/04/03 07:41:16;;;;;;;32.55;7.32;;;7.70;96.80;;;;;;5065746;28;20041;-74
2021/04/03 07:43:47;;;;;;;37.10;7.13;;;7.60;97.00;;;;;;5063585;28;20049;-76
2021/04/03 07:46:19;;;;;;;34.03;6.50;;;7.70;97.00;;;;;;5065499;28;20044;-76
2021/04/03 07:48:47;;;;;;;32.05;7.05;;;7.90;97.00;;;;;;5066243;28;20033;-76
2021/04/03 07:51:39;;;;;;;33.97;6.60;;;8.00;96.80;;;;;;5066453;28;20048;-69
2021/04/03 07:54:05;;;;;;;30.55;6.00;;;8.10;95.80;;;;;;5056668;28;20144;-73
2021/04/03 07:56:52;;;;;;;29.30;6.03;;;8.10;95.40;;;;;;5064175;28;20076;-71
2021/04/03 07:59:44;;;;;;;30.30;6.65;;;8.00;95.40;;;;;;5064795;28;20058;-71
2021/04/03 08:02:15;;;;;;;32.60;5.72;;;7.80;95.80;;;;;;5064650;28;20041;-72
2021/04/03 08:04:41;;;;;;;29.15;6.72;;;7.70;95.90;;;;;;5064667;28;20056;-71
2021/04/03 08:07:07;;;;;;;30.25;6.70;;;7.80;95.90;;;;;;5064969;28;20053;-72
2021/04/03 08:09:35;;;;;;;31.77;6.47;;;7.80;95.80;;;;;;5064819;28;20064;-72
2021/04/03 08:12:02;;;;;;;31.73;6.43;;;7.80;95.60;;;;;;5065192;28;20493;-72
2021/04/03 08:14:29;;;;;;;32.97;6.22;;;7.80;95.20;;;;;;5065800;28;20075;-72
2021/04/03 08:16:55;;;;;;;29.20;5.72;;;7.70;95.50;;;;;;5065331;28;20049;-72
2021/04/03 08:19:30;;;;;;;31.23;6.47;;;7.70;95.90;;;;;;5059466;28;20060;-71
2021/04/03 08:21:57;;;;;;;27.83;5.75;;;7.80;95.70;;;;;;5060741;28;20059;-74
2021/04/03 08:24:24;;;;;;;33.38;6.75;;;7.90;95.30;;;;;;5064201;28;20052;-73
2021/04/03 08:26:51;;;;;;;27.85;5.90;;;7.90;94.90;;;;;;5063554;28;20037;-74
2021/04/03 08:29:25;;;;;;;34.08;6.47;;;7.90;95.00;;;;;;5044628;28;20127;-74
2021/04/03 08:31:52;;;;;;;23.65;4.80;;;7.90;95.30;;;;;;5064447;28;20069;-75
2021/04/03 08:34:19;;;;;;;26.88;5.47;;;8.00;94.40;;;;;;5066019;28;20041;-75
2021/04/03 08:36:45;;;;;;;27.20;5.95;;;8.00;94.60;;;;;;5065583;28;20037;-75
2021/04/03 08:39:13;;;;;;;39.45;6.43;;;8.00;94.90;;;;;;5064640;28;20493;-78
2021/04/03 08:41:41;;;;;;;29.85;6.63;;;8.10;94.70;;;;;;5063280;28;20037;-80
2021/04/03 08:44:18;;;;;;;33.55;8.13;;;8.10;94.60;;;;;;5064203;28;20054;-75
2021/04/03 08:46:46;;;;;;;29.17;5.78;;;8.00;94.10;;;;;;5037610;28;20049;-73
2021/04/03 08:49:20;;;;;;;26.27;5.78;;;8.00;94.30;;;;;;5044090;28;20058;-70
2021/04/03 08:51:45;;;;;;;31.52;6.85;;;8.10;94.40;;;;;;5042386;28;20044;-69
2021/04/03 08:54:11;;;;;;;25.23;5.88;;;8.20;94.40;;;;;;5045627;28;20051;-74
2021/04/03 08:56:37;;;;;;;32.25;6.13;;;8.30;94.40;;;;;;5029025;28;20077;-73
2021/04/03 08:59:07;;;;;;;28.92;6.32;;;8.40;94.50;;;;;;5057903;28;20048;-74
2021/04/03 09:01:36;;;;;;;32.45;6.65;;;8.60;94.50;;;;;;5046407;28;20560;-76
2021/04/03 09:04:07;;;;;;;25.17;5.30;;;8.70;94.30;;;;;;5056713;28;20041;-72
2021/04/03 09:06:50;;;;;;;26.90;4.97;;;8.90;93.70;;;;;;5045412;28;20041;-71
2021/04/03 09:09:17;;;;;;;25.60;5.10;;;9.00;92.70;;;;;;5056369;28;20136;-72
2021/04/03 09:11:56;;;;;;;28.20;5.35;;;9.00;92.40;;;;;;5029345;28;20040;-72
2021/04/03 09:14:27;;;;;;;29.80;5.37;;;9.00;92.40;;;;;;5047619;28;20489;-71
2021/04/03 09:16:53;;;;;;;22.23;5.63;;;9.00;92.00;;;;;;5041968;28;20045;-72
2021/04/03 09:19:26;;;;;;;26.05;5.45;;;9.00;91.80;;;;;;5046563;28;20041;-70
2021/04/03 09:21:52;;;;;;;18.33;4.20;;;9.10;91.60;;;;;;5053569;28;20064;-72
2021/04/03 09:24:36;;;;;;;22.15;6.25;;;9.00;91.20;;;;;;5057958;28;20053;-73
2021/04/03 09:27:08;;;;;;;23.38;5.50;;;9.10;90.80;;;;;;5034549;28;20109;-73
2021/04/03 09:29:34;;;;;;;28.50;6.30;;;9.30;91.30;;;;;;5052703;28;20052;-72
2021/04/03 09:32:07;;;;;;;25.42;5.22;;;9.30;91.80;;;;;;5055431;28;20039;-72
2021/04/03 09:34:34;;;;;;;28.48;5.25;;;9.40;90.80;;;;;;5049870;28;20055;-72
2021/04/03 09:37:22;;;;;;;26.38;4.70;;;9.70;91.50;;;;;;5054278;28;20049;-74
2021/04/03 09:39:53;;;;;;;21.30;4.60;;;9.80;88.20;;;;;;5051506;28;20045;-73
2021/04/03 09:42:24;;;;;;;18.83;4.00;;;10.00;90.60;;;;;;5054125;28;20049;-72
2021/04/03 09:44:51;;;;;;;20.35;3.97;;;10.10;90.00;;;;;;5048248;28;20048;-79
2021/04/03 09:47:17;;;;;;;24.30;4.55;;;10.20;89.00;;;;;;5059317;28;20037;-80
2021/04/03 09:49:45;;;;;;;21.27;4.70;;;10.20;88.40;;;;;;5050772;28;20037;-79
2021/04/03 09:52:15;;;;;;;22.98;4.47;;;10.10;87.00;;;;;;5058262;28;20071;-79
2021/04/03 09:54:42;;;;;;;17.50;4.47;;;10.20;89.00;;;;;;5052955;28;20047;-80
2021/04/03 09:57:09;;;;;;;18.42;4.50;;;10.30;88.80;;;;;;5048254;28;20045;-79
2021/04/03 09:59:35;;;;;;;20.05;4.40;;;10.30;86.70;;;;;;5039040;28;20062;-79
2021/04/03 10:02:02;;;;;;;21.02;4.85;;;10.60;87.70;;;;;;5040788;28;20124;-78
2021/04/03 10:04:28;;;;;;;22.73;5.22;;;10.60;87.20;;;;;;5054002;28;20049;-78
2021/04/03 10:06:54;;;;;;;17.92;4.55;;;10.70;85.80;;;;;;5037933;28;20682;-79
2021/04/03 10:09:24;;;;;;;24.20;4.85;;;10.80;87.30;;;;;;5039085;28;20068;-80
2021/04/03 10:11:52;;;;;;;25.27;4.63;;;10.70;85.80;;;;;;5044809;28;20072;-75
2021/04/03 10:14:18;;;;;;;19.98;4.07;;;10.70;85.80;;;;;;5060356;28;20042;-72
2021/04/03 10:16:44;;;;;;;18.75;5.40;;;10.80;85.10;;;;;;5049379;28;20052;-68
2021/04/03 10:19:10;;;;;;;20.42;4.55;;;10.80;84.60;;;;;;5060841;28;20075;-75
2021/04/03 10:21:36;;;;;;;14.80;3.22;;;11.00;83.60;;;;;;5037716;28;20126;-73
2021/04/03 10:24:02;;;;;;;22.13;4.50;;;10.90;81.70;;;;;;5058417;28;20044;-73
2021/04/03 10:26:28;;;;;;;17.88;4.28;;;11.00;84.20;;;;;;5040236;28;20057;-72
2021/04/03 10:28:54;;;;;;;23.25;4.82;;;11.20;83.40;;;;;;5060269;28;20123;-74
2021/04/03 10:31:21;;;;;;;17.42;4.63;;;11.30;83.50;;;;;;5034913;28;20044;-72
2021/04/03 10:33:46;;;;;;;16.20;4.22;;;11.40;83.30;;;;;;5057156;28;20045;-75
2021/04/03 10:36:12;;;;;;;22.15;4.40;;;11.50;82.50;;;;;;5032408;28;20115;-72
2021/04/03 10:38:38;;;;;;;22.85;4.43;;;11.40;82.00;;;;;;5058051;28;20071;-80
2021/04/03 10:41:05;;;;;;;19.00;4.30;;;11.50;83.90;;;;;;5047922;28;20128;-83
2021/04/03 10:43:31;;;;;;;18.05;4.07;;;11.30;78.60;;;;;;5040313;28;20145;-86
2021/04/03 10:45:58;;;;;;;19.52;4.00;;;11.40;81.20;;;;;;5044481;28;20057;-79
2021/04/03 10:48:23;;;;;;;14.93;4.25;;;11.40;81.30;;;;;;5058487;28;20041;-77
2021/04/03 10:50:50;;;;;;;19.50;4.65;;;11.50;82.60;;;;;;5048443;28;20045;-80
2021/04/03 10:53:16;;;;;;;21.40;4.45;;;11.50;81.90;;;;;;5047715;28;20060;-78
2021/04/03 10:55:42;;;;;;;23.17;4.70;;;11.60;83.20;;;;;;5031897;28;20045;-80
2021/04/03 10:58:09;;;;;;;19.10;3.97;;;11.70;83.40;;;;;;5050891;28;20095;-79
2021/04/03 11:00:35;;;;;;;119.93;8.18;;;11.70;81.20;;;;;;5047790;28;20041;-74
2021/04/03 11:03:02;;;;;;;18.60;3.92;;;12.00;82.00;;;;;;5050290;28;20110;-73
2021/04/03 11:05:28;;;;;;;27.15;4.47;;;12.00;81.40;;;;;;5047723;28;20088;-76
2021/04/03 11:07:54;;;;;;;17.95;4.03;;;12.20;82.00;;;;;;5058339;28;20125;-73
2021/04/03 11:10:20;;;;;;;17.45;4.07;;;12.20;80.90;;;;;;5046111;28;20552;-75
2021/04/03 11:12:46;;;;;;;16.20;4.07;;;12.00;79.00;;;;;;5047375;28;20052;-79
2021/04/03 11:15:12;;;;;;;20.55;5.55;;;12.10;81.40;;;;;;5052223;28;20062;-76
2021/04/03 11:17:38;;;;;;;18.85;4.63;;;12.20;80.60;;;;;;5057326;28;20041;-75
2021/04/03 11:20:09;;;;;;;18.73;4.45;;;12.00;79.90;;;;;;5031805;28;20099;-75
2021/04/03 11:22:36;;;;;;;14.20;3.35;;;11.90;80.50;;;;;;5052920;28;20045;-75
2021/04/03 11:25:03;;;;;;;18.65;4.30;;;12.20;81.20;;;;;;5050150;28;20463;-75
2021/04/03 11:27:30;;;;;;;21.02;4.30;;;12.20;80.70;;;;;;5058295;28;20049;-75
2021/04/03 11:29:56;;;;;;;20.58;4.38;;;12.20;79.50;;;;;;5049707;28;20045;-75
2021/04/03 11:32:21;;;;;;;22.08;4.72;;;12.50;79.00;;;;;;5058306;28;20049;-74
2021/04/03 11:34:47;;;;;;;22.27;4.75;;;12.50;80.00;;;;;;5060020;28;20044;-75
2021/04/03 11:37:13;;;;;;;22.23;4.70;;;12.40;79.50;;;;;;5035745;28;20048;-75
2021/04/03 11:39:39;;;;;;;16.85;3.80;;;12.60;79.50;;;;;;5059616;28;20044;-75
2021/04/03 11:42:06;;;;;;;21.48;4.95;;;12.60;77.60;;;;;;5048018;28;20048;-75
2021/04/03 11:44:31;;;;;;;18.30;4.63;;;12.40;77.50;;;;;;5059843;28;20036;-75
2021/04/03 11:46:57;;;;;;;18.70;4.10;;;12.40;80.50;;;;;;5048035;28;20053;-75
2021/04/03 11:49:24;;;;;;;16.45;4.32;;;12.60;80.10;;;;;;5041391;28;20037;-75
2021/04/03 11:51:50;;;;;;;18.75;4.40;;;12.60;77.80;;;;;;5049820;28;20059;-75
2021/04/03 11:54:17;;;;;;;23.98;5.28;;;12.60;77.50;;;;;;5048718;28;20041;-75
2021/04/03 11:56:44;;;;;;;18.58;4.35;;;12.90;77.10;;;;;;5050251;28;20057;-75
2021/04/03 11:59:10;;;;;;;23.35;4.72;;;13.00;75.80;;;;;;5060776;28;20108;-76
2021/04/03 12:01:35;;;;;;;19.92;3.90;;;13.00;75.60;;;;;;5047906;28;20086;-75
2021/04/03 12:04:01;;;;;;;18.52;5.13;;;13.00;76.80;;;;;;5056582;28;20053;-76
2021/04/03 12:06:27;;;;;;;22.10;5.43;;;12.90;77.30;;;;;;5031651;28;20069;-73
2021/04/03 12:08:53;;;;;;;16.65;3.80;;;12.80;76.80;;;;;;5055718;28;20045;-73
2021/04/03 12:11:19;;;;;;;18.10;4.00;;;13.10;76.50;;;;;;5050558;28;20069;-75
2021/04/03 12:13:44;;;;;;;14.10;3.67;;;13.00;75.50;;;;;;5055500;28;20048;-76
2021/04/03 12:16:10;;;;;;;20.08;4.05;;;12.80;76.10;;;;;;5043061;28;20069;-76
2021/04/03 12:18:36;;;;;;;22.73;5.38;;;13.10;75.50;;;;;;5054182;28;20044;-75
2021/04/03 12:21:02;;;;;;;16.13;4.45;;;13.20;74.80;;;;;;5050768;28;20056;-75
2021/04/03 12:23:28;;;;;;;21.08;4.20;;;13.20;74.60;;;;;;5060578;28;20053;-75
2021/04/03 12:25:53;;;;;;;15.32;3.60;;;13.10;73.80;;;;;;5051135;28;20051;-75
2021/04/03 12:28:20;;;;;;;17.70;3.50;;;13.20;74.70;;;;;;5060312;28;20136;-75
2021/04/03 12:30:46;;;;;;;14.57;3.50;;;13.20;75.20;;;;;;5049649;28;20087;-71
2021/04/03 12:33:11;;;;;;;14.27;4.13;;;13.30;73.90;;;;;;5054268;28;20063;-74
2021/04/03 12:35:37;;;;;;;17.13;4.85;;;13.30;71.30;;;;;;5047746;28;20041;-74
2021/04/03 12:38:03;;;;;;;17.33;3.90;;;13.20;73.80;;;;;;5035457;28;20059;-74
2021/04/03 12:40:29;;;;;;;20.83;4.00;;;13.30;73.90;;;;;;5042645;28;20473;-75
2021/04/03 12:42:54;;;;;;;21.00;5.72;;;13.40;72.30;;;;;;5031410;28;20312;-75
2021/04/03 12:45:20;;;;;;;20.92;3.63;;;13.30;72.90;;;;;;5048914;28;20043;-75
2021/04/03 12:47:46;;;;;;;16.02;3.60;;;13.40;72.90;;;;;;5055252;28;20548;-75
2021/04/03 12:50:13;;;;;;;19.42;4.40;;;13.10;72.60;;;;;;5048648;28;20101;-74